Time;durP1;ratioP1;P1;durP2;ratioP2;P2;SDS_P1;SDS_P2;PMS_P1;PMS_P2;Temp;Humidity;BMP_temperature;BMP_pressure;BME280_temperature;BME280_humidity;BME280_pressure;Samples;Min_cycle;Max_cycle;Signal;HPM_P1;HPM_P2
2022/04/28 00:00:09;;;;;;;7.38;2.28;;;27.40;92.50;;;;;;5062932;28;20254;-53
2022/04/28 00:02:36;;;;;;;4.03;2.10;;;27.40;92.40;;;;;;5064596;28;20028;-54
2022/04/28 00:05:04;;;;;;;2.55;2.00;;;27.40;92.30;;;;;;5062364;28;20060;-53
2022/04/28 00:07:31;;;;;;;9.32;3.85;;;27.40;92.20;;;;;;5064562;28;20197;-54
2022/04/28 00:09:58;;;;;;;6.60;3.92;;;27.40;92.20;;;;;;5064359;28;20061;-55
2022/04/28 00:12:26;;;;;;;7.15;3.33;;;27.40;92.20;;;;;;5064463;28;20044;-55
2022/04/28 00:14:53;;;;;;;5.47;2.80;;;27.30;92.10;;;;;;5064175;28;20086;-53
2022/04/28 00:17:20;;;;;;;9.27;2.90;;;27.30;92.20;;;;;;5064261;28;20017;-55
2022/04/28 00:19:46;;;;;;;9.27;2.63;;;27.30;92.20;;;;;;5061974;28;20032;-52
2022/04/28 00:22:13;;;;;;;4.30;2.33;;;27.30;92.10;;;;;;5064254;28;20044;-59
2022/04/28 00:24:41;;;;;;;4.80;2.17;;;27.30;92.10;;;;;;5062846;28;20056;-53
2022/04/28 00:27:08;;;;;;;4.85;2.28;;;27.30;92.10;;;;;;5064336;28;20024;-56
2022/04/28 00:29:35;;;;;;;5.35;2.22;;;27.30;92.00;;;;;;5063774;28;20025;-51
2022/04/28 00:32:02;;;;;;;4.43;1.80;;;27.30;91.90;;;;;;5064144;28;20313;-52
2022/04/28 00:34:28;;;;;;;5.60;2.05;;;27.30;91.80;;;;;;5063925;28;20025;-53
2022/04/28 00:36:55;;;;;;;3.92;2.10;;;27.30;91.70;;;;;;5063231;28;20027;-55
2022/04/28 00:39:22;;;;;;;5.70;2.30;;;27.30;91.60;;;;;;5063793;28;20024;-52
2022/04/28 00:41:48;;;;;;;4.22;2.08;;;27.30;91.60;;;;;;5064141;28;20033;-55
2022/04/28 00:44:16;;;;;;;5.32;2.00;;;27.30;91.50;;;;;;5063417;28;20041;-54
2022/04/28 00:46:43;;;;;;;7.63;2.20;;;27.30;91.30;;;;;;5063720;28;20209;-56
2022/04/28 00:51:59;;;;;;;4.07;1.77;;;27.30;91.20;;;;;;5061501;28;20020;-56
2022/04/28 00:54:28;;;;;;;3.75;1.98;;;27.30;91.20;;;;;;5063543;28;20127;-58
2022/04/28 00:56:55;;;;;;;5.47;1.70;;;27.30;91.10;;;;;;5063623;28;20034;-58
2022/04/28 00:59:22;;;;;;;4.90;1.80;;;27.20;91.00;;;;;;5063054;28;20016;-55
2022/04/28 01:01:48;;;;;;;5.32;1.73;;;27.20;91.10;;;;;;5062847;28;20037;-54
2022/04/28 01:04:15;;;;;;;4.65;1.58;;;27.20;91.00;;;;;;5062376;28;20080;-50
2022/04/28 01:06:42;;;;;;;5.72;2.42;;;27.20;91.10;;;;;;5063231;28;20021;-56
2022/04/28 01:09:08;;;;;;;8.05;3.10;;;27.20;91.10;;;;;;5063290;28;20025;-53
2022/04/28 01:11:36;;;;;;;4.35;2.30;;;27.20;91.10;;;;;;5063088;28;20025;-52
2022/04/28 01:14:04;;;;;;;6.28;2.45;;;27.10;91.30;;;;;;5060580;28;20024;-57
2022/04/28 01:16:30;;;;;;;7.78;4.55;;;27.20;91.30;;;;;;5063327;28;20033;-56
2022/04/28 01:18:58;;;;;;;14.40;7.22;;;27.20;91.40;;;;;;5063088;28;20017;-53
2022/04/28 01:21:25;;;;;;;16.80;10.52;;;27.20;91.40;;;;;;5063229;28;20306;-55
2022/04/28 01:23:52;;;;;;;15.65;10.93;;;27.10;91.50;;;;;;5061998;28;20032;-53
2022/04/28 01:26:20;;;;;;;18.40;13.57;;;27.20;91.50;;;;;;5060616;28;20025;-53
2022/04/28 01:28:48;;;;;;;16.85;11.70;;;27.10;91.50;;;;;;5061564;28;20037;-57
2022/04/28 01:31:14;;;;;;;14.43;7.78;;;27.10;91.60;;;;;;5063452;28;20325;-55
2022/04/28 01:33:42;;;;;;;12.40;5.95;;;27.10;91.70;;;;;;5064071;28;20071;-54
2022/04/28 01:36:09;;;;;;;8.60;5.40;;;27.00;91.80;;;;;;5061637;28;20264;-56
2022/04/28 01:38:36;;;;;;;7.90;5.70;;;27.00;91.80;;;;;;5061437;28;20313;-56
2022/04/28 01:41:04;;;;;;;7.45;4.25;;;27.00;91.90;;;;;;5061189;28;20021;-53
2022/04/28 01:43:31;;;;;;;8.90;3.90;;;27.00;91.80;;;;;;5062344;28;20029;-54
2022/04/28 01:45:57;;;;;;;10.90;3.88;;;27.00;92.00;;;;;;5062658;28;20076;-55
2022/04/28 01:48:24;;;;;;;7.35;3.50;;;27.00;92.00;;;;;;5062782;28;20021;-59
2022/04/28 01:56:21;;;;;;;6.72;3.20;;;27.00;92.10;;;;;;5059049;28;20075;-51
2022/04/28 01:58:48;;;;;;;6.47;2.88;;;27.00;92.10;;;;;;5062526;28;20032;-51
2022/04/28 02:01:15;;;;;;;6.63;2.90;;;26.90;92.00;;;;;;5063298;28;20044;-56
2022/04/28 02:03:41;;;;;;;11.73;2.63;;;27.00;92.10;;;;;;5063591;28;20060;-53
2022/04/28 02:06:08;;;;;;;8.65;2.80;;;27.00;92.10;;;;;;5061155;28;20198;-54
2022/04/28 02:08:35;;;;;;;5.03;2.80;;;26.90;92.10;;;;;;5062377;28;20033;-55
2022/04/28 02:11:01;;;;;;;8.85;3.30;;;26.90;92.20;;;;;;5062728;28;20055;-54
2022/04/28 02:13:28;;;;;;;11.02;3.15;;;26.90;92.20;;;;;;5062604;28;20080;-52
2022/04/28 02:15:55;;;;;;;7.72;2.78;;;26.90;92.20;;;;;;5066655;28;20021;-56
2022/04/28 02:18:21;;;;;;;9.55;3.17;;;26.90;92.30;;;;;;5066333;28;20056;-54
2022/04/28 02:20:48;;;;;;;7.75;3.08;;;26.90;92.30;;;;;;5067249;28;20037;-49
2022/04/28 02:23:16;;;;;;;5.28;2.65;;;26.90;92.30;;;;;;5064905;28;20024;-55
2022/04/28 02:25:42;;;;;;;7.30;2.92;;;26.90;92.30;;;;;;5066171;28;20043;-55
2022/04/28 02:28:09;;;;;;;7.55;2.92;;;26.90;92.30;;;;;;5066087;28;20024;-50
2022/04/28 02:30:36;;;;;;;7.30;2.28;;;26.90;92.40;;;;;;5066107;28;20100;-47
2022/04/28 02:33:11;;;;;;;7.75;2.72;;;26.90;92.30;;;;;;5065981;28;20021;-48
2022/04/28 02:35:39;;;;;;;6.90;2.80;;;26.90;92.30;;;;;;5064543;28;20108;-54
2022/04/28 02:38:07;;;;;;;9.18;6.05;;;26.90;92.30;;;;;;5064487;28;20100;-53
2022/04/28 02:40:34;;;;;;;5.97;3.00;;;26.90;92.30;;;;;;5065887;28;20265;-54
2022/04/28 02:43:00;;;;;;;8.75;2.70;;;26.90;92.30;;;;;;5065641;28;20056;-56
2022/04/28 02:45:27;;;;;;;9.05;3.20;;;26.90;92.30;;;;;;5065897;28;20049;-51
2022/04/28 02:47:54;;;;;;;5.35;2.70;;;26.90;92.30;;;;;;5065575;28;20332;-55
2022/04/28 02:50:22;;;;;;;10.35;3.05;;;26.90;92.30;;;;;;5066267;28;20033;-56
2022/04/28 02:52:50;;;;;;;8.40;2.50;;;26.90;92.30;;;;;;5065917;28;20045;-51
2022/04/28 02:55:17;;;;;;;4.38;1.88;;;26.80;92.30;;;;;;5065624;28;20051;-52
2022/04/28 02:57:44;;;;;;;7.57;2.20;;;26.80;92.20;;;;;;5073356;28;20205;-56
2022/04/28 03:00:11;;;;;;;7.80;2.35;;;26.80;92.20;;;;;;5076698;28;20036;-54
2022/04/28 03:02:38;;;;;;;4.38;2.15;;;26.80;92.20;;;;;;5073509;28;20048;-52
2022/04/28 03:05:05;;;;;;;5.55;2.03;;;26.70;92.20;;;;;;5064256;28;20029;-54
2022/04/28 03:13:03;;;;;;;13.60;10.38;;;26.70;92.30;;;;;;5065353;28;20052;-52
2022/04/28 03:15:30;;;;;;;21.10;13.07;;;26.70;92.40;;;;;;5066042;28;20083;-53
2022/04/28 03:17:56;;;;;;;10.20;6.13;;;26.70;92.30;;;;;;5065562;28;20047;-53
2022/04/28 03:20:23;;;;;;;10.45;4.53;;;26.70;92.30;;;;;;5065311;28;20058;-50
2022/04/28 03:22:50;;;;;;;4.85;3.10;;;26.70;92.30;;;;;;5065222;28;20074;-52
2022/04/28 03:25:16;;;;;;;6.72;2.78;;;26.70;92.40;;;;;;5063845;28;20333;-51
2022/04/28 03:27:43;;;;;;;4.90;2.58;;;26.70;92.30;;;;;;5066134;28;20118;-57
2022/04/28 03:30:10;;;;;;;4.97;2.35;;;26.70;92.40;;;;;;5066937;28;20033;-54
2022/04/28 03:32:37;;;;;;;6.10;2.30;;;26.70;92.40;;;;;;5066420;28;20060;-54
2022/04/28 03:35:04;;;;;;;8.90;2.47;;;26.70;92.40;;;;;;5066690;28;20092;-52
2022/04/28 03:37:31;;;;;;;5.35;2.10;;;26.70;92.40;;;;;;5066255;28;20021;-50
2022/04/28 03:39:57;;;;;;;6.78;2.00;;;26.70;92.30;;;;;;5066212;28;20140;-57
2022/04/28 03:42:24;;;;;;;6.72;1.90;;;26.60;92.20;;;;;;5066198;28;20012;-51
2022/04/28 03:44:51;;;;;;;7.05;2.10;;;26.60;92.30;;;;;;5065922;28;20106;-52
2022/04/28 03:47:17;;;;;;;11.23;2.05;;;26.60;92.30;;;;;;5066226;28;20025;-53
2022/04/28 03:49:44;;;;;;;6.95;1.70;;;26.60;92.20;;;;;;5066010;28;20313;-51
2022/04/28 03:52:11;;;;;;;7.15;1.90;;;26.60;92.20;;;;;;5065936;28;20075;-50
2022/04/28 03:54:37;;;;;;;3.53;1.60;;;26.60;92.30;;;;;;5058453;28;20036;-50
2022/04/28 03:57:04;;;;;;;6.97;1.70;;;26.60;92.30;;;;;;5052111;28;20029;-54
2022/04/28 03:59:31;;;;;;;6.00;1.85;;;26.60;92.30;;;;;;5045960;28;20326;-55
2022/04/28 04:01:58;;;;;;;3.35;1.58;;;26.60;92.30;;;;;;5046960;28;20053;-56
2022/04/28 04:04:24;;;;;;;4.25;1.73;;;26.60;92.20;;;;;;5065300;28;20096;-53
2022/04/28 04:06:51;;;;;;;7.80;1.75;;;26.60;92.20;;;;;;5065340;28;20041;-56
2022/04/28 04:09:18;;;;;;;4.88;1.70;;;26.60;92.20;;;;;;5065724;28;20060;-50
2022/04/28 04:11:44;;;;;;;3.03;1.42;;;26.60;92.20;;;;;;5065646;28;20044;-48
2022/04/28 04:14:11;;;;;;;5.95;1.73;;;26.60;92.30;;;;;;5065927;28;20040;-51
2022/04/28 04:16:38;;;;;;;6.50;1.75;;;26.60;92.30;;;;;;5065577;28;20056;-52
2022/04/28 04:19:05;;;;;;;4.47;1.90;;;26.60;92.30;;;;;;5065648;28;20092;-51
2022/04/28 04:21:32;;;;;;;8.45;1.85;;;26.60;92.30;;;;;;5065361;28;20024;-55
2022/04/28 04:23:59;;;;;;;7.88;1.90;;;26.60;92.30;;;;;;5065427;28;20048;-52
2022/04/28 04:26:26;;;;;;;8.77;1.83;;;26.60;92.30;;;;;;5065362;28;20013;-53
2022/04/28 04:28:52;;;;;;;6.78;1.90;;;26.60;92.30;;;;;;5065279;28;20104;-52
2022/04/28 04:34:04;;;;;;;4.82;1.67;;;26.60;92.30;;;;;;5065112;28;20135;-50
2022/04/28 04:36:30;;;;;;;8.20;1.92;;;26.60;92.40;;;;;;5060514;28;20052;-53
2022/04/28 04:38:57;;;;;;;4.80;1.60;;;26.60;92.30;;;;;;5058843;28;20048;-51
2022/04/28 04:41:24;;;;;;;4.07;1.50;;;26.60;92.30;;;;;;5052993;28;20021;-52
2022/04/28 04:43:50;;;;;;;4.05;1.70;;;26.60;92.20;;;;;;5045024;28;20109;-51
2022/04/28 04:46:17;;;;;;;11.25;1.60;;;26.60;92.20;;;;;;5044961;28;20332;-51
2022/04/28 04:48:44;;;;;;;5.43;1.90;;;26.60;92.10;;;;;;5044865;28;20371;-57
2022/04/28 04:51:10;;;;;;;3.70;1.80;;;26.70;92.20;;;;;;5047991;28;20045;-52
2022/04/28 04:53:37;;;;;;;4.93;1.75;;;26.70;92.30;;;;;;5053162;28;20021;-53
2022/04/28 04:56:03;;;;;;;3.85;2.00;;;26.70;92.30;;;;;;5064923;28;20039;-52
2022/04/28 04:58:30;;;;;;;10.73;2.15;;;26.70;92.30;;;;;;5064625;28;20357;-51
2022/04/28 05:00:56;;;;;;;3.90;1.80;;;26.70;92.40;;;;;;5064733;28;20102;-51
2022/04/28 05:03:23;;;;;;;4.90;1.88;;;26.70;92.40;;;;;;5064774;28;20044;-50
2022/04/28 05:05:51;;;;;;;3.85;1.90;;;26.80;92.40;;;;;;5064475;28;20033;-55
2022/04/28 05:08:18;;;;;;;6.93;2.05;;;26.70;92.40;;;;;;5064519;28;20016;-54
2022/04/28 05:10:45;;;;;;;5.63;2.20;;;26.70;92.40;;;;;;5064878;28;20063;-51
2022/04/28 05:13:11;;;;;;;6.65;2.08;;;26.70;92.50;;;;;;5064421;28;20037;-52
2022/04/28 05:15:38;;;;;;;5.80;2.05;;;26.70;92.50;;;;;;5065034;28;20217;-53
2022/04/28 05:18:05;;;;;;;3.85;1.75;;;26.70;92.50;;;;;;5064511;28;20088;-50
2022/04/28 05:20:31;;;;;;;9.27;2.00;;;26.70;92.60;;;;;;5064738;28;20325;-55
2022/04/28 05:22:58;;;;;;;4.57;1.80;;;26.70;92.50;;;;;;5064643;28;20044;-50
2022/04/28 05:25:24;;;;;;;5.30;1.90;;;26.80;92.60;;;;;;5064228;28;20036;-53
2022/04/28 05:27:51;;;;;;;5.28;1.73;;;26.80;92.60;;;;;;5064226;28;20052;-50
2022/04/28 05:30:18;;;;;;;6.43;1.95;;;26.80;92.50;;;;;;5064511;28;20070;-49
2022/04/28 05:32:44;;;;;;;6.07;1.75;;;26.80;92.80;;;;;;5064545;28;20264;-55
2022/04/28 05:35:11;;;;;;;4.75;2.22;;;26.80;92.70;;;;;;5064018;28;20340;-54
2022/04/28 05:37:39;;;;;;;7.90;2.00;;;26.80;92.70;;;;;;5057887;28;20017;-53
2022/04/28 05:40:11;;;;;;;5.93;1.98;;;26.80;92.70;;;;;;5052546;28;20025;-51
2022/04/28 05:45:42;;;;;;;4.03;1.98;;;26.80;92.80;;;;;;5063788;28;20087;-57
2022/04/28 05:48:13;;;;;;;3.58;1.75;;;26.80;92.70;;;;;;5052924;28;20055;-51
2022/04/28 05:50:41;;;;;;;5.78;1.77;;;26.80;92.70;;;;;;5064023;28;20132;-50
2022/04/28 05:53:09;;;;;;;3.47;1.70;;;26.80;92.70;;;;;;5063806;28;20036;-50
2022/04/28 05:55:36;;;;;;;2.28;1.50;;;26.80;92.80;;;;;;5063855;28;20078;-53
2022/04/28 05:58:03;;;;;;;4.20;1.88;;;26.80;92.90;;;;;;5063885;28;20092;-52
2022/04/28 06:00:31;;;;;;;3.45;1.63;;;26.80;92.80;;;;;;5061305;28;20301;-50
2022/04/28 06:03:00;;;;;;;8.00;1.63;;;26.80;92.80;;;;;;5062687;28;20024;-51
2022/04/28 06:05:27;;;;;;;8.10;2.10;;;26.80;92.90;;;;;;5061810;28;20096;-52
2022/04/28 06:07:54;;;;;;;2.83;1.60;;;26.80;92.90;;;;;;5062497;28;20035;-55
2022/04/28 06:10:20;;;;;;;7.85;1.90;;;26.80;92.90;;;;;;5061414;28;20028;-50
2022/04/28 06:12:47;;;;;;;4.45;1.65;;;26.80;92.80;;;;;;5063030;28;20024;-51
2022/04/28 06:15:14;;;;;;;4.07;1.98;;;26.80;92.80;;;;;;5061891;28;20037;-48
2022/04/28 06:17:41;;;;;;;4.72;1.70;;;26.80;92.80;;;;;;5060394;28;20019;-51
2022/04/28 06:20:08;;;;;;;5.13;1.60;;;26.80;92.80;;;;;;5062577;28;20017;-49
2022/04/28 06:22:34;;;;;;;5.32;1.90;;;26.80;92.80;;;;;;5062405;28;20096;-50
2022/04/28 06:25:01;;;;;;;6.25;1.90;;;26.80;92.90;;;;;;5062450;28;20095;-54
2022/04/28 06:27:30;;;;;;;4.70;1.42;;;26.80;92.90;;;;;;5062612;28;20073;-50
2022/04/28 06:29:57;;;;;;;6.28;1.60;;;26.80;92.80;;;;;;5062691;28;20039;-54
2022/04/28 06:32:23;;;;;;;8.07;1.83;;;26.80;92.90;;;;;;5062521;28;20309;-51
2022/04/28 06:34:50;;;;;;;10.55;1.70;;;26.80;92.90;;;;;;5062502;28;20238;-59
2022/04/28 06:37:18;;;;;;;2.55;1.40;;;26.80;93.10;;;;;;5062233;28;20191;-49
2022/04/28 06:39:45;;;;;;;4.97;1.60;;;26.80;92.90;;;;;;5062252;28;20032;-57
2022/04/28 06:42:12;;;;;;;4.60;1.45;;;26.80;92.90;;;;;;5062501;28;20314;-57
2022/04/28 06:44:39;;;;;;;2.28;1.40;;;26.80;93.00;;;;;;5060908;28;20049;-44
2022/04/28 06:47:05;;;;;;;5.43;1.40;;;26.80;93.00;;;;;;5062865;28;20427;-50
2022/04/28 06:49:33;;;;;;;4.55;1.40;;;26.80;92.90;;;;;;5063618;28;20025;-51
2022/04/28 06:52:00;;;;;;;4.75;1.60;;;26.80;92.90;;;;;;5061186;28;20021;-57
2022/04/28 06:54:27;;;;;;;3.25;1.45;;;26.80;92.90;;;;;;5058982;28;20017;-50
2022/04/28 06:56:53;;;;;;;4.72;1.38;;;26.70;92.80;;;;;;5063234;28;20076;-53
2022/04/28 06:59:20;;;;;;;4.68;1.33;;;26.70;92.80;;;;;;5063488;28;20079;-48
2022/04/28 07:01:48;;;;;;;3.80;1.50;;;26.80;92.80;;;;;;5067244;28;20066;-49
2022/04/28 07:04:14;;;;;;;4.25;1.30;;;26.70;92.70;;;;;;5066990;28;20216;-54
2022/04/28 07:06:41;;;;;;;7.32;1.50;;;26.70;92.70;;;;;;5066944;28;20059;-53
2022/04/28 07:09:08;;;;;;;4.97;1.20;;;26.70;92.70;;;;;;5058866;28;20025;-52
2022/04/28 07:11:35;;;;;;;3.35;1.40;;;26.70;92.70;;;;;;5046975;28;20028;-49
2022/04/28 07:14:02;;;;;;;2.60;1.02;;;26.80;92.70;;;;;;5046798;28;20037;-52
2022/04/28 07:16:28;;;;;;;2.80;1.20;;;26.70;92.60;;;;;;5046818;28;20309;-54
2022/04/28 07:18:55;;;;;;;6.88;1.40;;;26.70;92.60;;;;;;5047080;28;20029;-47
2022/04/28 07:21:21;;;;;;;4.85;1.30;;;26.70;92.60;;;;;;5046689;28;20056;-50
2022/04/28 07:23:48;;;;;;;6.18;1.23;;;26.70;92.60;;;;;;5046901;28;20060;-55
2022/04/28 07:26:15;;;;;;;7.63;1.42;;;26.70;92.60;;;;;;5046859;28;20328;-54
2022/04/28 07:28:41;;;;;;;5.20;1.05;;;26.70;92.60;;;;;;5046639;28;20059;-56
2022/04/28 07:31:08;;;;;;;6.25;0.95;;;26.70;92.70;;;;;;5046458;28;20048;-61
2022/04/28 07:33:34;;;;;;;7.85;1.17;;;26.70;92.70;;;;;;5046476;28;20037;-57
2022/04/28 07:36:01;;;;;;;3.75;1.10;;;26.70;92.70;;;;;;5046439;28;20080;-53
2022/04/28 07:38:27;;;;;;;2.58;1.30;;;26.70;92.60;;;;;;5046153;28;20059;-51
2022/04/28 07:40:55;;;;;;;5.10;1.02;;;26.70;92.60;;;;;;5046401;28;20021;-49
2022/04/28 07:43:22;;;;;;;4.53;1.27;;;26.70;92.60;;;;;;5046280;28;20029;-52
2022/04/28 07:45:49;;;;;;;3.40;1.02;;;26.70;92.70;;;;;;5045972;28;20392;-50
2022/04/28 07:48:15;;;;;;;3.38;1.20;;;26.70;92.70;;;;;;5046195;28;20337;-50
2022/04/28 07:50:42;;;;;;;5.63;0.95;;;26.70;92.70;;;;;;5046159;28;20028;-53
2022/04/28 07:53:09;;;;;;;3.60;1.20;;;26.70;92.70;;;;;;5046008;28;20021;-51
2022/04/28 07:55:35;;;;;;;4.28;1.13;;;26.70;92.70;;;;;;5046193;28;20124;-51
2022/04/28 07:58:02;;;;;;;3.83;1.00;;;26.60;92.70;;;;;;5046159;28;20034;-55
2022/04/28 08:00:29;;;;;;;4.47;1.20;;;26.60;92.70;;;;;;5046391;28;20021;-49
2022/04/28 08:02:55;;;;;;;4.18;1.08;;;26.70;92.70;;;;;;5046036;28;20093;-54
2022/04/28 08:05:22;;;;;;;4.57;0.88;;;26.60;92.80;;;;;;5046072;28;20030;-50
2022/04/28 08:07:49;;;;;;;5.65;1.10;;;26.70;92.80;;;;;;5045943;28;20041;-54
2022/04/28 08:10:15;;;;;;;6.28;1.30;;;26.60;92.70;;;;;;5045806;28;20084;-52
2022/04/28 08:12:42;;;;;;;4.53;1.10;;;26.60;92.80;;;;;;5045262;28;20105;-53
2022/04/28 08:15:10;;;;;;;5.28;1.08;;;26.60;92.80;;;;;;5045915;28;20029;-51
2022/04/28 08:17:36;;;;;;;4.65;0.98;;;26.60;92.80;;;;;;5045722;28;20026;-50
2022/04/28 08:20:04;;;;;;;7.03;1.30;;;26.70;92.80;;;;;;5045557;28;20021;-52
2022/04/28 08:22:31;;;;;;;3.40;1.10;;;26.60;92.70;;;;;;5045446;28;20021;-48
2022/04/28 08:24:57;;;;;;;5.45;1.17;;;26.60;92.70;;;;;;5045494;28;20057;-53
2022/04/28 08:27:25;;;;;;;4.45;1.10;;;26.60;92.70;;;;;;5045464;28;20033;-49
2022/04/28 08:29:52;;;;;;;9.23;0.98;;;26.60;92.70;;;;;;5045596;28;20048;-52
2022/04/28 08:32:19;;;;;;;6.97;1.20;;;26.60;92.70;;;;;;5045443;28;20021;-52
2022/04/28 08:34:45;;;;;;;5.40;1.30;;;26.60;92.70;;;;;;5045637;28;20057;-51
2022/04/28 08:37:12;;;;;;;5.38;0.95;;;26.60;92.70;;;;;;5045226;28;20248;-49
2022/04/28 08:39:39;;;;;;;5.03;1.20;;;26.60;92.70;;;;;;5045173;28;20029;-48
2022/04/28 08:42:05;;;;;;;4.70;0.88;;;26.60;92.70;;;;;;5045227;28;20036;-53
2022/04/28 08:44:32;;;;;;;3.20;0.95;;;26.60;92.70;;;;;;5044907;28;20116;-53
2022/04/28 08:47:00;;;;;;;4.60;1.10;;;26.60;92.70;;;;;;5045031;28;20018;-53
2022/04/28 08:49:31;;;;;;;5.15;1.13;;;26.60;92.70;;;;;;5045000;28;20033;-54
2022/04/28 08:51:59;;;;;;;6.43;1.38;;;26.60;92.70;;;;;;5044948;28;20028;-54
2022/04/28 08:54:29;;;;;;;3.13;1.10;;;26.60;92.70;;;;;;5044867;28;20032;-50
2022/04/28 08:56:57;;;;;;;5.28;0.90;;;26.60;92.70;;;;;;5045275;28;20252;-52
2022/04/28 08:59:25;;;;;;;3.13;0.90;;;26.60;92.60;;;;;;5045064;28;20417;-51
2022/04/28 09:01:52;;;;;;;3.53;0.82;;;26.60;92.60;;;;;;5044950;28;20217;-51
2022/04/28 09:04:18;;;;;;;4.07;1.27;;;26.60;92.60;;;;;;5044627;28;20323;-53
2022/04/28 09:06:49;;;;;;;3.15;1.10;;;26.60;92.60;;;;;;5044601;28;20214;-51
2022/04/28 09:09:18;;;;;;;4.88;1.10;;;26.60;92.60;;;;;;5044681;28;20260;-59
2022/04/28 09:11:46;;;;;;;7.75;0.90;;;26.60;92.60;;;;;;5044649;28;20018;-50
2022/04/28 09:14:18;;;;;;;4.68;1.00;;;26.60;92.70;;;;;;5044629;28;20060;-52
2022/04/28 09:16:56;;;;;;;4.95;1.30;;;26.60;92.70;;;;;;5044553;28;20036;-53
2022/04/28 09:19:30;;;;;;;4.68;1.25;;;26.60;92.70;;;;;;5044575;28;20033;-53
2022/04/28 09:22:04;;;;;;;4.80;1.10;;;26.50;92.60;;;;;;5044475;28;20043;-50
2022/04/28 09:24:31;;;;;;;3.15;1.02;;;26.60;92.60;;;;;;5043429;28;20037;-58
2022/04/28 09:26:58;;;;;;;3.33;0.90;;;26.60;92.60;;;;;;5044458;28;20037;-50
2022/04/28 09:29:30;;;;;;;3.08;0.90;;;26.50;92.60;;;;;;5044650;28;20025;-55
2022/04/28 09:31:57;;;;;;;2.42;0.88;;;26.50;92.50;;;;;;5044210;28;20025;-49
2022/04/28 09:34:25;;;;;;;1.52;0.95;;;26.60;92.50;;;;;;5044276;28;20033;-52
2022/04/28 09:36:54;;;;;;;3.83;1.20;;;26.50;92.50;;;;;;5044227;28;20028;-52
2022/04/28 09:44:57;;;;;;;3.13;1.10;;;26.50;92.50;;;;;;5044086;28;20369;-54
2022/04/28 09:47:26;;;;;;;3.20;0.90;;;26.50;92.50;;;;;;5044001;28;20104;-50
2022/04/28 09:49:55;;;;;;;3.63;0.90;;;26.50;92.50;;;;;;5043834;28;20053;-56
2022/04/28 09:52:25;;;;;;;3.00;0.90;;;26.50;92.50;;;;;;5043949;28;20076;-51
2022/04/28 09:54:53;;;;;;;5.18;1.08;;;26.50;92.70;;;;;;5044119;28;20096;-51
2022/04/28 09:57:21;;;;;;;3.78;0.93;;;26.50;92.50;;;;;;5043821;28;20081;-50
2022/04/28 09:59:48;;;;;;;5.78;1.10;;;26.50;92.50;;;;;;5044304;28;20029;-54
2022/04/28 10:02:18;;;;;;;4.30;0.98;;;26.50;92.50;;;;;;5043896;28;20033;-53
2022/04/28 10:04:46;;;;;;;5.20;1.17;;;26.50;92.50;;;;;;5043950;28;20033;-56
2022/04/28 10:07:14;;;;;;;1.80;0.80;;;26.50;92.50;;;;;;5043738;28;20025;-54
2022/04/28 10:09:43;;;;;;;3.53;0.93;;;26.40;92.50;;;;;;5043771;28;20045;-50
2022/04/28 10:12:10;;;;;;;4.45;0.93;;;26.40;92.50;;;;;;5043705;28;20013;-59
2022/04/28 10:14:41;;;;;;;2.45;0.90;;;26.40;92.50;;;;;;5044161;28;20210;-55
2022/04/28 10:17:18;;;;;;;2.65;1.10;;;26.40;92.40;;;;;;5043692;28;20033;-56
2022/04/28 10:19:52;;;;;;;4.43;1.00;;;26.40;92.50;;;;;;5043840;28;20056;-52
2022/04/28 10:22:25;;;;;;;3.58;0.98;;;26.40;92.50;;;;;;5043713;28;20048;-51
2022/04/28 10:33:10;;;;;;;4.00;1.00;;;26.40;92.50;;;;;;5043412;28;20025;-50
2022/04/28 10:35:41;;;;;;;2.55;1.10;;;26.40;92.40;;;;;;5045804;28;20056;-50
2022/04/28 10:38:14;;;;;;;5.93;1.10;;;26.40;92.40;;;;;;5047694;28;20086;-52
2022/04/28 10:40:46;;;;;;;3.95;1.15;;;26.40;92.40;;;;;;5048075;28;20100;-48
2022/04/28 10:43:32;;;;;;;4.95;1.10;;;26.40;92.40;;;;;;5047471;28;20033;-55
2022/04/28 10:46:27;;;;;;;2.97;1.00;;;26.40;92.30;;;;;;5047177;28;20092;-52
2022/04/28 10:48:59;;;;;;;2.15;1.20;;;26.40;92.30;;;;;;5047107;28;20071;-52
2022/04/28 10:51:28;;;;;;;4.03;0.90;;;26.40;92.30;;;;;;5047199;28;20218;-54
2022/04/28 10:54:02;;;;;;;3.65;1.15;;;26.40;92.50;;;;;;5047067;28;20199;-48
2022/04/28 10:56:31;;;;;;;5.53;2.92;;;26.30;92.30;;;;;;5047122;28;20317;-49
2022/04/28 10:59:21;;;;;;;6.32;2.90;;;26.30;92.20;;;;;;5047216;28;20060;-52
2022/04/28 11:01:49;;;;;;;7.43;2.53;;;26.40;92.20;;;;;;5046923;28;20030;-49
2022/04/28 11:04:20;;;;;;;5.90;2.45;;;26.40;92.20;;;;;;5047158;28;20029;-49
2022/04/28 11:06:56;;;;;;;5.80;2.30;;;26.40;92.20;;;;;;5046786;28;20021;-54
2022/04/28 11:10:00;;;;;;;5.45;2.38;;;26.40;92.20;;;;;;5046879;28;20029;-53
2022/04/28 11:12:41;;;;;;;3.95;2.08;;;26.30;92.20;;;;;;5035781;28;20210;-52
2022/04/28 11:15:10;;;;;;;4.05;2.20;;;26.30;92.20;;;;;;5047061;28;20096;-49
2022/04/28 11:17:39;;;;;;;4.07;2.22;;;26.40;92.10;;;;;;5046722;28;20209;-54
2022/04/28 11:20:11;;;;;;;4.82;2.20;;;26.30;92.20;;;;;;5046610;28;20033;-54
2022/04/28 11:22:50;;;;;;;3.85;2.22;;;26.40;92.20;;;;;;5046576;28;20017;-49
2022/04/28 11:25:19;;;;;;;5.63;2.50;;;26.40;92.20;;;;;;5046515;28;20037;-54
2022/04/28 11:27:50;;;;;;;7.03;2.60;;;26.40;92.10;;;;;;5046762;28;20017;-54
2022/04/28 11:30:27;;;;;;;5.88;2.40;;;26.40;92.10;;;;;;5047015;28;20033;-52
2022/04/28 11:32:58;;;;;;;6.10;2.85;;;26.40;92.10;;;;;;5046473;28;20079;-53
2022/04/28 11:35:31;;;;;;;3.05;2.33;;;26.40;92.10;;;;;;5046337;28;20225;-51
2022/04/28 11:37:58;;;;;;;5.70;2.60;;;26.40;92.10;;;;;;5046393;28;20026;-54
2022/04/28 11:40:25;;;;;;;4.57;2.60;;;26.40;92.10;;;;;;5046126;28;20372;-53
2022/04/28 11:43:03;;;;;;;3.33;2.28;;;26.50;92.10;;;;;;5046335;28;20041;-50
2022/04/28 11:45:31;;;;;;;5.13;2.40;;;26.50;92.10;;;;;;5046082;28;20049;-57
2022/04/28 11:48:00;;;;;;;3.50;2.05;;;26.40;92.10;;;;;;5045330;28;20025;-51
2022/04/28 11:50:32;;;;;;;4.93;2.35;;;26.40;92.10;;;;;;5046714;28;20036;-52
2022/04/28 11:53:03;;;;;;;7.10;2.60;;;26.40;92.10;;;;;;5046011;28;20079;-54
2022/04/28 11:55:33;;;;;;;2.83;1.83;;;26.40;92.10;;;;;;5046056;28;20029;-50
2022/04/28 11:58:00;;;;;;;3.40;2.22;;;26.50;92.10;;;;;;5046570;28;20033;-47
2022/04/28 12:00:27;;;;;;;5.30;2.10;;;26.50;92.10;;;;;;5046338;28;20102;-47
2022/04/28 12:02:55;;;;;;;3.60;2.10;;;26.50;92.10;;;;;;5046033;28;20222;-51
2022/04/28 12:05:25;;;;;;;4.10;2.20;;;26.50;92.10;;;;;;5045677;28;20064;-55
2022/04/28 12:07:54;;;;;;;3.80;2.05;;;26.60;92.10;;;;;;5045744;28;20244;-49
2022/04/28 12:16:19;;;;;;;2.55;2.13;;;26.60;92.10;;;;;;5045614;28;20037;-51
2022/04/28 12:21:34;;;;;;;5.95;2.97;;;26.60;92.00;;;;;;5045473;28;20075;-53
2022/04/28 12:24:08;;;;;;;5.35;2.65;;;26.60;92.00;;;;;;5045566;28;20317;-48
2022/04/28 12:26:39;;;;;;;4.93;2.90;;;26.60;92.00;;;;;;5045274;28;20056;-56
2022/04/28 12:29:10;;;;;;;4.05;2.67;;;26.60;92.00;;;;;;5045491;28;20025;-49
2022/04/28 12:31:37;;;;;;;4.18;2.90;;;26.70;92.00;;;;;;5045415;28;20029;-49
2022/04/28 12:34:17;;;;;;;6.43;2.60;;;26.70;92.00;;;;;;5045339;28;20033;-51
2022/04/28 12:36:46;;;;;;;5.93;2.70;;;26.70;92.00;;;;;;5045202;28;20025;-54
2022/04/28 12:39:12;;;;;;;6.03;2.60;;;26.70;91.90;;;;;;5045472;28;20029;-54
2022/04/28 12:41:44;;;;;;;4.47;2.35;;;26.70;91.90;;;;;;5045322;28;20375;-52
2022/04/28 12:44:11;;;;;;;4.30;2.20;;;26.70;91.90;;;;;;5045065;28;20045;-52
2022/04/28 12:46:41;;;;;;;3.63;2.33;;;26.80;91.90;;;;;;5044972;28;20106;-53
2022/04/28 12:49:11;;;;;;;5.65;2.13;;;26.80;91.90;;;;;;5045025;28;20213;-54
2022/04/28 12:51:45;;;;;;;3.90;2.25;;;26.80;91.90;;;;;;5044951;28;20036;-50
2022/04/28 12:54:20;;;;;;;2.30;1.88;;;26.80;91.90;;;;;;5045324;28;20028;-54
2022/04/28 12:56:54;;;;;;;5.80;2.03;;;26.80;91.90;;;;;;5044956;28;20037;-51
2022/04/28 12:59:27;;;;;;;4.10;1.77;;;26.90;91.90;;;;;;5044832;28;20075;-52
2022/04/28 13:01:56;;;;;;;2.40;1.92;;;26.90;91.90;;;;;;5045146;28;20035;-53
2022/04/28 13:04:26;;;;;;;4.63;1.52;;;26.90;91.80;;;;;;5044758;28;20037;-50
2022/04/28 13:06:54;;;;;;;4.47;1.75;;;27.00;92.10;;;;;;5044622;28;20038;-55
2022/04/28 13:09:22;;;;;;;3.53;1.70;;;27.00;91.80;;;;;;5044884;28;20032;-49
2022/04/28 13:11:50;;;;;;;3.15;1.50;;;27.00;91.80;;;;;;5044697;28;20022;-51
2022/04/28 13:14:19;;;;;;;3.90;1.55;;;27.00;91.80;;;;;;5044843;28;20318;-53
2022/04/28 13:16:46;;;;;;;3.38;1.60;;;27.00;91.70;;;;;;5044580;28;20022;-49
2022/04/28 13:19:14;;;;;;;4.05;1.60;;;27.10;91.80;;;;;;5044426;28;20049;-52
2022/04/28 13:21:41;;;;;;;4.53;1.48;;;27.10;91.70;;;;;;5044485;28;20097;-57
2022/04/28 13:24:09;;;;;;;3.47;1.30;;;27.10;91.70;;;;;;5044666;28;20097;-54
2022/04/28 13:26:36;;;;;;;2.15;1.10;;;27.10;91.70;;;;;;5044273;28;20052;-55
2022/04/28 13:29:04;;;;;;;3.15;1.40;;;27.20;91.70;;;;;;5044538;28;20087;-51
2022/04/28 13:31:31;;;;;;;2.10;1.40;;;27.20;91.70;;;;;;5044372;28;20083;-52